• Join FlightAware (Why Join?)
  • Login
  • US Flag 
04:45AM EDT


 

Airport Tracker/Info


-or-


 

Live Flight TrackerFlight Track Log ✈ DAT465 ✈ 01-May-2012 ✈ HUEN / EBB - EBBR / BRU

Flight Track Log - Related Links

Times and Time Zones

All times are in EDT time to prevent confusion due to time zone crossing. See the DAT465 flight status page for this flight to view local times or setup timezone preferences in your user account.

Time Position Orientation Groundspeed Altitude Reporting Facility
EDT Latitude Longitude Course Direction KTS MPH feet Rate Location/Type
04:05PM 0.0715 32.4324 339° North  Level Estimated
04:06PM 0.1880 32.3880 339° North  Level Estimated
04:07PM 0.3045 32.3436 339° North  Level Estimated
04:08PM 0.4210 32.2991 339° North  Level Estimated
04:09PM 0.5375 32.2547 339° North  Level Estimated
04:10PM 0.6541 32.2103 339° North  Level Estimated
04:11PM 0.7706 32.1659 339° North  Level Estimated
04:12PM 0.8871 32.1215 339° North  Level Estimated
04:13PM 1.0036 32.0770 339° North  Level Estimated
04:14PM 1.1201 32.0326 339° North  Level Estimated
04:15PM 1.2366 31.9882 339° North  Level Estimated
04:16PM 1.3531 31.9438 339° North  Level Estimated
04:17PM 1.4696 31.8993 339° North  Level Estimated
04:18PM 1.5861 31.8549 339° North  Level Estimated
04:19PM 1.7026 31.8104 339° North  Level Estimated
04:20PM 1.8191 31.7659 339° North  Level Estimated
04:21PM 1.9356 31.7215 339° North  Level Estimated
04:22PM 2.0521 31.6770 339° North  Level Estimated
04:23PM 2.1686 31.6325 339° North  Level Estimated
04:24PM 2.2851 31.5881 339° North  Level Estimated
04:25PM 2.4016 31.5436 339° North  Level Estimated
04:26PM 2.5181 31.4991 339° North  Level Estimated
04:27PM 2.6346 31.4546 339° North  Level Estimated
04:28PM 2.7511 31.4101 339° North  Level Estimated
04:29PM 2.8676 31.3655 339° North  Level Estimated
04:30PM 2.9841 31.3210 339° North  Level Estimated
04:31PM 3.1006 31.2765 339° North  Level Estimated
04:32PM 3.2171 31.2319 339° North  Level Estimated
04:33PM 3.3336 31.1874 339° North  Level Estimated
04:34PM 3.4500 31.1428 339° North  Level Estimated
04:35PM 3.5665 31.0982 339° North  Level Estimated
04:36PM 3.6830 31.0536 339° North  Level Estimated
04:37PM 3.7995 31.0090 339° North  Level Estimated
04:38PM 3.9160 30.9644 339° North  Level Estimated
04:39PM 4.0324 30.9198 339° North  Level Estimated
04:40PM 4.1489 30.8751 339° North  Level Estimated
04:41PM 4.2654 30.8305 339° North  Level Estimated
04:42PM 4.3818 30.7858 339° North  Level Estimated
04:43PM 4.4983 30.7411 339° North  Level Estimated
04:44PM 4.6147 30.6964 339° North  Level Estimated
04:45PM 4.7312 30.6517 339° North  Level Estimated
04:46PM 4.8476 30.6070 339° North  Level Estimated
04:47PM 4.9641 30.5623 339° North  Level Estimated
04:48PM 5.0805 30.5175 339° North  Level Estimated
04:49PM 5.1970 30.4727 339° North  Level Estimated
04:50PM 5.3134 30.4279 339° North  Level Estimated
04:51PM 5.4299 30.3831 339° North  Level Estimated
04:52PM 5.5463 30.3383 339° North  Level Estimated
04:53PM 5.6627 30.2935 339° North  Level Estimated
04:54PM 5.7792 30.2486 339° North  Level Estimated
04:55PM 5.8956 30.2037 339° North  Level Estimated
04:56PM 6.0120 30.1588 339° North  Level Estimated
04:57PM 6.1284 30.1139 339° North  Level Estimated
04:58PM 6.2448 30.0690 339° North  Level Estimated
04:59PM 6.3612 30.0240 339° North  Level Estimated
05:00PM 6.4776 29.9790 339° North  Level Estimated
05:01PM 6.5940 29.9340 339° North  Level Estimated
05:02PM 6.7104 29.8890 339° North  Level Estimated
05:03PM 6.8268 29.8440 339° North  Level Estimated
05:04PM 6.9432 29.7989 339° North  Level Estimated
05:05PM 7.0596 29.7538 339° North  Level Estimated
05:06PM 7.1760 29.7087 339° North  Level Estimated
05:07PM 7.2923 29.6636 339° North  Level Estimated
05:08PM 7.4087 29.6184 339° North  Level Estimated
05:09PM 7.5251 29.5732 339° North  Level Estimated
05:10PM 7.6414 29.5280 339° North  Level Estimated
05:11PM 7.7578 29.4828 339° North  Level Estimated
05:12PM 7.8741 29.4376 339° North  Level Estimated
05:13PM 7.9905 29.3923 339° North  Level Estimated
05:14PM 8.1068 29.3470 339° North  Level Estimated
05:15PM 8.2232 29.3017 339° North  Level Estimated
05:16PM 8.3395 29.2563 339° North  Level Estimated
05:17PM 8.4558 29.2109 339° North  Level Estimated
05:18PM 8.5722 29.1655 339° North  Level Estimated
05:19PM 8.6885 29.1201 339° North  Level Estimated
05:20PM 8.8048 29.0746 339° North  Level Estimated
05:21PM 8.9211 29.0291 339° North  Level Estimated
05:22PM 9.0374 28.9836 339° North  Level Estimated
05:23PM 9.1537 28.9381 339° North  Level Estimated
05:24PM 9.2700 28.8925 339° North  Level Estimated
05:25PM 9.3862 28.8469 339° North  Level Estimated
05:26PM 9.5025 28.8012 339° North  Level Estimated
05:27PM 9.6188 28.7556 339° North  Level Estimated
05:28PM 9.7351 28.7099 339° North  Level Estimated
05:29PM 9.8513 28.6641 339° North  Level Estimated
05:30PM 9.9676 28.6183 339° North  Level Estimated
05:31PM 10.0838 28.5725 339° North  Level Estimated
05:32PM 10.2001 28.5267 339° North  Level Estimated
05:33PM 10.3163 28.4808 339° North  Level Estimated
05:34PM 10.4325 28.4349 339° North  Level Estimated
05:35PM 10.5487 28.3890 339° North  Level Estimated
05:36PM 10.6650 28.3430 339° North  Level Estimated
05:37PM 10.7812 28.2970 339° North  Level Estimated
05:38PM 10.8974 28.2510 339° North  Level Estimated
05:39PM 11.0135 28.2049 339° North  Level Estimated
05:40PM 11.1297 28.1588 339° North  Level Estimated
05:41PM 11.2459 28.1126 339° North  Level Estimated
05:42PM 11.3621 28.0665 339° North  Level Estimated
05:43PM 11.4783 28.0202 339° North  Level Estimated
05:44PM 11.5944 27.9740 339° North  Level Estimated
05:45PM 11.7106 27.9277 339° North  Level Estimated
05:46PM 11.8267 27.8813 339° North  Level Estimated
05:47PM 11.9429 27.8349 339° North  Level Estimated
05:48PM 12.0590 27.7885 339° North  Level Estimated
05:49PM 12.1751 27.7421 339° North  Level Estimated
05:50PM 12.2912 27.6956 339° North  Level Estimated
05:51PM 12.4073 27.6490 339° North  Level Estimated
05:52PM 12.5234 27.6024 339° North  Level Estimated
05:53PM 12.6395 27.5558 339° North  Level Estimated
05:54PM 12.7556 27.5091 339° North  Level Estimated
05:55PM 12.8716 27.4624 339° North  Level Estimated
05:56PM 12.9877 27.4157 339° North  Level Estimated
05:57PM 13.1038 27.3689 339° North  Level Estimated
05:58PM 13.2198 27.3220 339° North  Level Estimated
05:59PM 13.3359 27.2751 339° North  Level Estimated
06:00PM 13.4519 27.2282 339° North  Level Estimated
06:01PM 13.5679 27.1812 339° North  Level Estimated
06:02PM 13.6839 27.1342 338° Northwest  Level Estimated
06:03PM 13.7999 27.0871 338° Northwest  Level Estimated
06:04PM 13.9159 27.0400 338° Northwest  Level Estimated
06:05PM 14.0319 26.9928 338° Northwest  Level Estimated
06:06PM 14.1479 26.9456 338° Northwest  Level Estimated
06:07PM 14.2639 26.8984 338° Northwest  Level Estimated
06:08PM 14.3798 26.8511 338° Northwest  Level Estimated
06:09PM 14.4958 26.8037 338° Northwest  Level Estimated
06:10PM 14.6117 26.7563 338° Northwest  Level Estimated
06:11PM 14.7276 26.7088 338° Northwest  Level Estimated
06:12PM 14.8435 26.6613 338° Northwest  Level Estimated
06:13PM 14.9595 26.6138 338° Northwest  Level Estimated
06:14PM 15.0754 26.5662 338° Northwest  Level Estimated
06:15PM 15.1912 26.5185 338° Northwest  Level Estimated
06:16PM 15.3071 26.4708 338° Northwest  Level Estimated
06:17PM 15.4230 26.4230 338° Northwest  Level Estimated
06:18PM 15.5389 26.3752 338° Northwest  Level Estimated
06:19PM 15.6547 26.3273 338° Northwest  Level Estimated
06:20PM 15.7705 26.2794 338° Northwest  Level Estimated
06:21PM 15.8864 26.2314 338° Northwest  Level Estimated
06:22PM 16.0022 26.1834 338° Northwest  Level Estimated
06:23PM 16.1180 26.1353 338° Northwest  Level Estimated
06:24PM 16.2338 26.0871 338° Northwest  Level Estimated
06:25PM 16.3496 26.0389 338° Northwest  Level Estimated
06:26PM 16.4654 25.9907 338° Northwest  Level Estimated
06:27PM 16.5811 25.9423 338° Northwest  Level Estimated
06:28PM 16.6969 25.8939 338° Northwest  Level Estimated
06:29PM 16.8126 25.8455 338° Northwest  Level Estimated
06:30PM 16.9284 25.7970 338° Northwest  Level Estimated
06:31PM 17.0441 25.7484 338° Northwest  Level Estimated
06:32PM 17.1598 25.6998 338° Northwest  Level Estimated
06:33PM 17.2755 25.6511 338° Northwest  Level Estimated
06:34PM 17.3912 25.6024 338° Northwest  Level Estimated
06:35PM 17.5068 25.5536 338° Northwest  Level Estimated
06:36PM 17.6225 25.5047 338° Northwest  Level Estimated
06:37PM 17.7381 25.4558 338° Northwest  Level Estimated
06:38PM 17.8538 25.4068 338° Northwest  Level Estimated
06:39PM 17.9694 25.3578 338° Northwest  Level Estimated
06:40PM 18.0850 25.3087 338° Northwest  Level Estimated
06:41PM 18.2006 25.2595 338° Northwest  Level Estimated
06:42PM 18.3162 25.2102 338° Northwest  Level Estimated
06:43PM 18.4318 25.1609 338° Northwest  Level Estimated
06:44PM 18.5473 25.1115 338° Northwest  Level Estimated
06:45PM 18.6629 25.0621 338° Northwest  Level Estimated
06:46PM 18.7784 25.0126 338° Northwest  Level Estimated
06:47PM 18.8939 24.9630 338° Northwest  Level Estimated
06:48PM 19.0094 24.9133 338° Northwest  Level Estimated
06:49PM 19.1249 24.8636 338° Northwest  Level Estimated
06:50PM 19.2404 24.8138 338° Northwest  Level Estimated
06:51PM 19.3559 24.7640 338° Northwest  Level Estimated
06:52PM 19.4713 24.7141 338° Northwest  Level Estimated
06:53PM 19.5868 24.6640 338° Northwest  Level Estimated
06:54PM 19.7022 24.6140 338° Northwest  Level Estimated
06:55PM 19.8176 24.5638 338° Northwest  Level Estimated
06:56PM 19.9330 24.5136 338° Northwest  Level Estimated
06:57PM 20.0484 24.4633 338° Northwest  Level Estimated
06:58PM 20.1638 24.4130 338° Northwest  Level Estimated
06:59PM 20.2791 24.3625 338° Northwest  Level Estimated
07:00PM 20.3945 24.3120 338° Northwest  Level Estimated
07:01PM 20.5098 24.2614 338° Northwest  Level Estimated
07:02PM 20.6251 24.2107 338° Northwest  Level Estimated
07:03PM 20.7404 24.1600 338° Northwest  Level Estimated
07:04PM 20.8557 24.1092 338° Northwest  Level Estimated
07:05PM 20.9710 24.0583 338° Northwest  Level Estimated
07:06PM 21.0862 24.0073 338° Northwest  Level Estimated
07:07PM 21.2015 23.9562 338° Northwest  Level Estimated
07:08PM 21.3167 23.9051 338° Northwest  Level Estimated
07:09PM 21.4319 23.8539 338° Northwest  Level Estimated
07:10PM 21.5471 23.8026 337° Northwest  Level Estimated
07:11PM 21.6623 23.7512 337° Northwest  Level Estimated
07:12PM 21.7774 23.6997 337° Northwest  Level Estimated
07:13PM 21.8925 23.6482 337° Northwest  Level Estimated
07:14PM 22.0077 23.5966 337° Northwest  Level Estimated
07:15PM 22.1228 23.5448 337° Northwest  Level Estimated
07:16PM 22.2379 23.4930 337° Northwest  Level Estimated
07:17PM 22.3530 23.4412 337° Northwest  Level Estimated
07:18PM 22.4680 23.3892 337° Northwest  Level Estimated
07:19PM 22.5831 23.3372 337° Northwest  Level Estimated
07:20PM 22.6981 23.2850 337° Northwest  Level Estimated
07:21PM 22.8131 23.2328 337° Northwest  Level Estimated
07:22PM 22.9281 23.1805 337° Northwest  Level Estimated
07:23PM 23.0431 23.1280 337° Northwest  Level Estimated
07:24PM 23.1581 23.0756 337° Northwest  Level Estimated
07:25PM 23.2730 23.0230 337° Northwest  Level Estimated
07:26PM 23.3879 22.9703 337° Northwest  Level Estimated
07:27PM 23.5028 22.9175 337° Northwest  Level Estimated
07:28PM 23.6177 22.8647 337° Northwest  Level Estimated
07:29PM 23.7326 22.8117 337° Northwest  Level Estimated
07:30PM 23.8474 22.7587 337° Northwest  Level Estimated
07:31PM 23.9623 22.7055 337° Northwest  Level Estimated
07:32PM 24.0771 22.6523 337° Northwest  Level Estimated
07:33PM 24.1919 22.5990 337° Northwest  Level Estimated
07:34PM 24.3067 22.5455 337° Northwest  Level Estimated
07:35PM 24.4214 22.4920 337° Northwest  Level Estimated
07:36PM 24.5362 22.4384 337° Northwest  Level Estimated
07:37PM 24.6509 22.3847 337° Northwest  Level Estimated
07:38PM 24.7656 22.3309 337° Northwest  Level Estimated
07:39PM 24.8803 22.2769 337° Northwest  Level Estimated
07:40PM 24.9950 22.2229 337° Northwest  Level Estimated
07:41PM 25.1096 22.1688 337° Northwest  Level Estimated
07:42PM 25.2242 22.1146 337° Northwest  Level Estimated
07:43PM 25.3389 22.0602 337° Northwest  Level Estimated
07:44PM 25.4534 22.0058 337° Northwest  Level Estimated
07:45PM 25.5680 21.9513 337° Northwest  Level Estimated
07:46PM 25.6826 21.8967 337° Northwest  Level Estimated
07:47PM 25.7971 21.8419 337° Northwest  Level Estimated
07:48PM 25.9116 21.7871 337° Northwest  Level Estimated
07:49PM 26.0261 21.7321 337° Northwest  Level Estimated
07:50PM 26.1406 21.6771 337° Northwest  Level Estimated
07:51PM 26.2550 21.6219 337° Northwest  Level Estimated
07:52PM 26.3694 21.5666 337° Northwest  Level Estimated
07:53PM 26.4838 21.5112 337° Northwest  Level Estimated
07:54PM 26.5982 21.4558 337° Northwest  Level Estimated
07:55PM 26.7126 21.4002 336° Northwest  Level Estimated
07:56PM 26.8269 21.3444 336° Northwest  Level Estimated
07:57PM 26.9412 21.2886 336° Northwest  Level Estimated
07:58PM 27.0555 21.2327 336° Northwest  Level Estimated
07:59PM 27.1698 21.1766 336° Northwest  Level Estimated
08:00PM 27.2840 21.1204 336° Northwest  Level Estimated
08:01PM 27.3983 21.0641 336° Northwest  Level Estimated
08:02PM 27.5125 21.0077 336° Northwest  Level Estimated
08:03PM 27.6266 20.9512 336° Northwest  Level Estimated
08:04PM 27.7408 20.8946 336° Northwest  Level Estimated
08:05PM 27.8549 20.8378 336° Northwest  Level Estimated
08:06PM 27.9690 20.7809 336° Northwest  Level Estimated
08:07PM 28.0831 20.7239 336° Northwest  Level Estimated
08:08PM 28.1972 20.6668 336° Northwest  Level Estimated
08:09PM 28.3112 20.6096 336° Northwest  Level Estimated
08:10PM 28.4252 20.5522 336° Northwest  Level Estimated
08:11PM 28.5392 20.4947 336° Northwest  Level Estimated
08:12PM 28.6532 20.4371 336° Northwest  Level Estimated
08:13PM 28.7672 20.3794 336° Northwest  Level Estimated
08:14PM 28.8811 20.3215 336° Northwest  Level Estimated
08:15PM 28.9950 20.2635 336° Northwest  Level Estimated
08:16PM 29.1088 20.2054 336° Northwest  Level Estimated
08:17PM 29.2227 20.1472 336° Northwest  Level Estimated
08:18PM 29.3365 20.0888 336° Northwest  Level Estimated
08:19PM 29.4503 20.0303 336° Northwest  Level Estimated
08:20PM 29.5641 19.9716 336° Northwest  Level Estimated
08:21PM 29.6778 19.9128 336° Northwest  Level Estimated
08:22PM 29.7915 19.8539 336° Northwest  Level Estimated
08:23PM 29.9052 19.7949 336° Northwest  Level Estimated
08:24PM 30.0189 19.7357 336° Northwest  Level Estimated
08:25PM 30.1325 19.6764 336° Northwest  Level Estimated
08:26PM 30.2461 19.6170 336° Northwest  Level Estimated
08:27PM 30.3597 19.5574 336° Northwest  Level Estimated
08:28PM 30.4732 19.4977 336° Northwest  Level Estimated
08:29PM 30.5868 19.4378 336° Northwest  Level Estimated
08:30PM 30.7003 19.3778 336° Northwest  Level Estimated
08:31PM 30.8137 19.3177 335° Northwest  Level Estimated
08:32PM 30.9272 19.2574 335° Northwest  Level Estimated
08:33PM 31.0406 19.1970 335° Northwest  Level Estimated
08:34PM 31.1540 19.1364 335° Northwest  Level Estimated
08:35PM 31.2674 19.0757 335° Northwest  Level Estimated
08:36PM 31.3807 19.0148 335° Northwest  Level Estimated
08:37PM 31.4940 18.9538 335° Northwest  Level Estimated
08:38PM 31.6073 18.8926 335° Northwest  Level Estimated
08:39PM 31.7205 18.8313 335° Northwest  Level Estimated
08:40PM 31.8337 18.7699 335° Northwest  Level Estimated
08:41PM 31.9469 18.7083 335° Northwest  Level Estimated
08:42PM 32.0601 18.6465 335° Northwest  Level Estimated
08:43PM 32.1732 18.5846 335° Northwest  Level Estimated
08:44PM 32.2863 18.5225 335° Northwest  Level Estimated
08:45PM 32.3994 18.4603 335° Northwest  Level Estimated
08:46PM 32.5124 18.3979 335° Northwest  Level Estimated
08:47PM 32.6254 18.3354 335° Northwest  Level Estimated
08:48PM 32.7384 18.2727 335° Northwest  Level Estimated
08:49PM 32.8513 18.2098 335° Northwest  Level Estimated
08:50PM 32.9642 18.1468 335° Northwest  Level Estimated
08:51PM 33.0771 18.0837 335° Northwest  Level Estimated
08:52PM 33.1900 18.0203 335° Northwest  Level Estimated
08:53PM 33.3028 17.9568 335° Northwest  Level Estimated
08:54PM 33.4156 17.8932 335° Northwest  Level Estimated
08:55PM 33.5283 17.8293 335° Northwest  Level Estimated
08:56PM 33.6410 17.7653 335° Northwest  Level Estimated
08:57PM 33.7537 17.7012 335° Northwest  Level Estimated
08:58PM 33.8664 17.6368 335° Northwest  Level Estimated
08:59PM 33.9790 17.5723 335° Northwest  Level Estimated
09:00PM 34.0916 17.5077 335° Northwest  Level Estimated
09:01PM 34.2041 17.4428 334° Northwest  Level Estimated
09:02PM 34.3166 17.3778 334° Northwest  Level Estimated
09:03PM 34.4291 17.3126 334° Northwest  Level Estimated
09:04PM 34.5415 17.2472 334° Northwest  Level Estimated
09:05PM 34.6540 17.1817 334° Northwest  Level Estimated
09:06PM 34.7663 17.1160 334° Northwest  Level Estimated
09:07PM 34.8787 17.0501 334° Northwest  Level Estimated
09:08PM 34.9910 16.9840 334° Northwest  Level Estimated
09:09PM 35.1033 16.9177 334° Northwest  Level Estimated
09:10PM 35.2155 16.8512 334° Northwest  Level Estimated
09:11PM 35.3277 16.7846 334° Northwest  Level Estimated
09:12PM 35.4398 16.7178 334° Northwest  Level Estimated
09:13PM 35.5520 16.6508 334° Northwest  Level Estimated
09:14PM 35.6641 16.5836 334° Northwest  Level Estimated
09:15PM 35.7761 16.5162 334° Northwest  Level Estimated
09:16PM 35.8881 16.4487 334° Northwest  Level Estimated
09:17PM 36.0001 16.3809 334° Northwest  Level Estimated
09:18PM 36.1120 16.3129 334° Northwest  Level Estimated
09:19PM 36.2239 16.2448 334° Northwest  Level Estimated
09:20PM 36.3358 16.1764 334° Northwest  Level Estimated
09:21PM 36.4476 16.1079 334° Northwest  Level Estimated
09:22PM 36.5594 16.0392 334° Northwest  Level Estimated
09:23PM 36.6711 15.9702 334° Northwest  Level Estimated
09:24PM 36.7828 15.9011 334° Northwest  Level Estimated
09:25PM 36.8945 15.8317 334° Northwest  Level Estimated
09:26PM 37.0061 15.7622 334° Northwest  Level Estimated
09:27PM 37.1177 15.6924 333° Northwest  Level Estimated
09:28PM 37.2292 15.6225 333° Northwest  Level Estimated
09:29PM 37.3407 15.5523 333° Northwest  Level Estimated
09:30PM 37.4522 15.4820 333° Northwest  Level Estimated
09:31PM 37.5636 15.4114 333° Northwest  Level Estimated
09:32PM 37.6749 15.3406 333° Northwest  Level Estimated
09:33PM 37.7863 15.2696 333° Northwest  Level Estimated
09:34PM 37.8976 15.1984 333° Northwest  Level Estimated
09:35PM 38.0088 15.1270 333° Northwest  Level Estimated
09:36PM 38.1200 15.0553 333° Northwest  Level Estimated
09:37PM 38.2312 14.9834 333° Northwest  Level Estimated
09:38PM 38.3423 14.9113 333° Northwest  Level Estimated
09:39PM 38.4533 14.8390 333° Northwest  Level Estimated
09:40PM 38.5644 14.7665 333° Northwest  Level Estimated
09:41PM 38.6753 14.6937 333° Northwest  Level Estimated
09:42PM 38.7863 14.6208 333° Northwest  Level Estimated
09:43PM 38.8971 14.5476 333° Northwest  Level Estimated
09:44PM 39.0080 14.4741 333° Northwest  Level Estimated
09:45PM 39.1188 14.4004 333° Northwest  Level Estimated
09:46PM 39.2295 14.3265 333° Northwest  Level Estimated
09:47PM 39.3402 14.2524 333° Northwest  Level Estimated
09:48PM 39.4509 14.1780 333° Northwest  Level Estimated
09:49PM 39.5615 14.1034 332° Northwest  Level Estimated
09:50PM 39.6721 14.0286 332° Northwest  Level Estimated
09:51PM 39.7826 13.9535 332° Northwest  Level Estimated
09:52PM 39.8930 13.8781 332° Northwest  Level Estimated
09:53PM 40.0034 13.8026 332° Northwest  Level Estimated
09:54PM 40.1138 13.7268 332° Northwest  Level Estimated
09:55PM 40.2241 13.6507 332° Northwest  Level Estimated
09:56PM 40.3344 13.5744 332° Northwest  Level Estimated
09:57PM 40.4446 13.4978 332° Northwest  Level Estimated
09:58PM 40.5547 13.4210 332° Northwest  Level Estimated
09:59PM 40.6648 13.3440 332° Northwest  Level Estimated
10:00PM 40.7749 13.2666 332° Northwest  Level Estimated
10:01PM 40.8849 13.1891 332° Northwest  Level Estimated
10:02PM 40.9949 13.1112 332° Northwest  Level Estimated
10:03PM 41.1048 13.0331 332° Northwest  Level Estimated
10:04PM 41.2146 12.9548 332° Northwest  Level Estimated
10:05PM 41.3244 12.8762 332° Northwest  Level Estimated
10:06PM 41.4342 12.7973 332° Northwest  Level Estimated
10:07PM 41.5439 12.7181 332° Northwest  Level Estimated
10:08PM 41.6535 12.6387 332° Northwest  Level Estimated
10:09PM 41.7631 12.5590 331° Northwest  Level Estimated
10:10PM 41.8726 12.4790 331° Northwest  Level Estimated
10:11PM 41.9821 12.3988 331° Northwest  Level Estimated
10:12PM 42.0915 12.3183 331° Northwest  Level Estimated
10:13PM 42.2009 12.2375 331° Northwest  Level Estimated
10:14PM 42.3102 12.1564 331° Northwest  Level Estimated
10:15PM 42.4194 12.0751 331° Northwest  Level Estimated
10:16PM 42.5286 11.9934 331° Northwest  Level Estimated
10:17PM 42.6377 11.9115 331° Northwest  Level Estimated
10:18PM 42.7468 11.8293 331° Northwest  Level Estimated
10:19PM 42.8558 11.7468 331° Northwest  Level Estimated
10:20PM 42.9647 11.6640 331° Northwest  Level Estimated
10:21PM 43.0736 11.5809 331° Northwest  Level Estimated
10:22PM 43.1825 11.4975 331° Northwest  Level Estimated
10:23PM 43.2912 11.4139 331° Northwest  Level Estimated
10:24PM 43.3999 11.3299 331° Northwest  Level Estimated
10:25PM 43.5086 11.2456 331° Northwest  Level Estimated
10:26PM 43.6172 11.1610 331° Northwest  Level Estimated
10:27PM 43.7257 11.0761 330° Northwest  Level Estimated
10:28PM 43.8342 10.9909 330° Northwest  Level Estimated
10:29PM 43.9426 10.9054 330° Northwest  Level Estimated
10:30PM 44.0509 10.8196 330° Northwest  Level Estimated
10:31PM 44.1592 10.7334 330° Northwest  Level Estimated
10:32PM 44.2674 10.6470 330° Northwest  Level Estimated
10:33PM 44.3755 10.5602 330° Northwest  Level Estimated
10:34PM 44.4836 10.4731 330° Northwest  Level Estimated
10:35PM 44.5916 10.3857 330° Northwest  Level Estimated
10:36PM 44.6995 10.2980 330° Northwest  Level Estimated
10:37PM 44.8074 10.2099 330° Northwest  Level Estimated
10:38PM 44.9152 10.1215 330° Northwest  Level Estimated
10:39PM 45.0229 10.0328 330° Northwest  Level Estimated
10:40PM 45.1306 9.9437 330° Northwest  Level Estimated
10:41PM 45.2382 9.8543 330° Northwest  Level Estimated
10:42PM 45.3457 9.7646 330° Northwest  Level Estimated
10:43PM 45.4532 9.6745 329° Northwest  Level Estimated
10:44PM 45.5605 9.5841 329° Northwest  Level Estimated
10:45PM 45.6678 9.4933 329° Northwest  Level Estimated
10:46PM 45.7751 9.4022 329° Northwest  Level Estimated
10:47PM 45.8823 9.3107 329° Northwest  Level Estimated
10:48PM 45.9893 9.2189 329° Northwest  Level Estimated
10:49PM 46.0964 9.1267 329° Northwest  Level Estimated
10:50PM 46.2033 9.0341 329° Northwest  Level Estimated
10:51PM 46.3102 8.9412 329° Northwest  Level Estimated
10:52PM 46.4170 8.8480 329° Northwest  Level Estimated
10:53PM 46.5237 8.7543 329° Northwest  Level Estimated
10:54PM 46.6303 8.6603 329° Northwest  Level Estimated
10:55PM 46.7369 8.5660 329° Northwest  Level Estimated
10:56PM 46.8434 8.4712 329° Northwest  Level Estimated
10:57PM 46.9498 8.3761 329° Northwest  Level Estimated
10:58PM 47.0561 8.2806 328° Northwest  Level Estimated
10:59PM 47.1624 8.1847 328° Northwest  Level Estimated
11:00PM 47.2686 8.0885 328° Northwest  Level Estimated
11:01PM 47.3746 7.9918 328° Northwest  Level Estimated
11:02PM 47.4807 7.8948 328° Northwest  Level Estimated
11:03PM 47.5866 7.7973 328° Northwest  Level Estimated
11:04PM 47.6924 7.6995 328° Northwest  Level Estimated
11:05PM 47.7982 7.6013 328° Northwest  Level Estimated
11:06PM 47.9039 7.5026 328° Northwest  Level Estimated
11:07PM 48.0094 7.4036 328° Northwest  Level Estimated
11:08PM 48.1149 7.3042 328° Northwest  Level Estimated
11:09PM 48.2204 7.2043 328° Northwest  Level Estimated
11:10PM 48.3257 7.1041 328° Northwest  Level Estimated
11:11PM 48.4309 7.0034 328° Northwest  Level Estimated
11:12PM 48.5361 6.9023 327° Northwest  Level Estimated
11:13PM 48.6412 6.8008 327° Northwest  Level Estimated
11:14PM 48.7461 6.6988 327° Northwest  Level Estimated
11:15PM 48.8510 6.5965 327° Northwest  Level Estimated
11:16PM 48.9558 6.4937 327° Northwest  Level Estimated
11:17PM 49.0605 6.3905 327° Northwest  Level Estimated
11:18PM 49.1651 6.2868 327° Northwest  Level Estimated
11:19PM 49.2696 6.1827 327° Northwest  Level Estimated
11:20PM 49.3741 6.0782 327° Northwest  Level Estimated
11:21PM 49.4784 5.9732 327° Northwest  Level Estimated
11:22PM 49.5826 5.8678 327° Northwest  Level Estimated
11:23PM 49.6868 5.7619 327° Northwest  Level Estimated
11:24PM 49.7908 5.6555 327° Northwest  Level Estimated
11:25PM 49.8947 5.5487 326° Northwest  Level Estimated
11:26PM 49.9986 5.4415 326° Northwest  Level Estimated
11:27PM 50.1023 5.3337 326° Northwest  Level Estimated
11:28PM 50.2060 5.2256 326° Northwest  Level Estimated
11:29PM 50.3095 5.1169 326° Northwest  Level Estimated
11:30PM 50.4130 5.0078 326° Northwest  Level Estimated
11:31PM 50.5163 4.8981 326° Northwest  Level Estimated
11:32PM 50.6195 4.7881 326° Northwest  Level Estimated
11:33PM 50.7227 4.6775 326° Northwest  Level Estimated
11:34PM 50.8257 4.5664 326° Northwest  Level Estimated
11:35PM 50.9286 4.4549 146° Southeast  Level Estimated
11:36PM 50.8257 4.5664 326° Northwest  Level Estimated
11:37PM 50.9286 4.4549 146° Southeast  Level Estimated
11:38PM 50.8257 4.5664 326° Northwest  Level Estimated
11:39PM 50.9286 4.4549 146° Southeast  Level Estimated
11:40PM 50.8257 4.5664 326° Northwest  Level Estimated
11:41PM 50.9286 4.4549 146° Southeast  Level Estimated
11:42PM 50.8257 4.5664 326° Northwest  Level Estimated
11:43PM 50.9286 4.4549 146° Southeast  Level Estimated
11:44PM 50.8257 4.5664 326° Northwest  Level Estimated
11:45PM 50.9286 4.4549 146° Southeast  Level Estimated
11:46PM 50.8257 4.5664 326° Northwest  Level Estimated
11:47PM 50.9286 4.4549 146° Southeast  Level Estimated
11:48PM 50.8257 4.5664 326° Northwest  Level Estimated
11:49PM 50.9286 4.4549 146° Southeast  Level Estimated
11:50PM 50.8257 4.5664 146° Southeast  Level Estimated